sensor_id;sensor_type;location;lat;lon;timestamp;temperature;humidity
27162;DHT22;54464;50.558;9.704;2023-12-20T00:01:17;3.30;99.90
27162;DHT22;54464;50.558;9.704;2023-12-20T00:03:42;3.30;99.90
27162;DHT22;54464;50.558;9.704;2023-12-20T00:06:08;3.30;99.90
27162;DHT22;54464;50.558;9.704;2023-12-20T00:08:34;3.40;99.90
27162;DHT22;54464;50.558;9.704;2023-12-20T00:11:00;3.30;99.90
27162;DHT22;54464;50.558;9.704;2023-12-20T00:13:25;3.30;99.90
27162;DHT22;54464;50.558;9.704;2023-12-20T00:15:51;3.30;99.90
27162;DHT22;54464;50.558;9.704;2023-12-20T00:18:17;3.30;99.90
27162;DHT22;54464;50.558;9.704;2023-12-20T00:20:42;3.40;99.90
27162;DHT22;54464;50.558;9.704;2023-12-20T00:23:08;3.30;99.90
27162;DHT22;54464;50.558;9.704;2023-12-20T00:25:34;3.30;99.90
27162;DHT22;54464;50.558;9.704;2023-12-20T00:28:00;3.40;99.90
27162;DHT22;54464;50.558;9.704;2023-12-20T00:30:28;3.40;99.90
27162;DHT22;54464;50.558;9.704;2023-12-20T00:32:55;3.40;99.90
27162;DHT22;54464;50.558;9.704;2023-12-20T00:35:22;3.40;99.90
27162;DHT22;54464;50.558;9.704;2023-12-20T00:37:47;3.40;99.90
27162;DHT22;54464;50.558;9.704;2023-12-20T00:40:13;3.40;99.90
27162;DHT22;54464;50.558;9.704;2023-12-20T00:42:39;3.40;99.90
27162;DHT22;54464;50.558;9.704;2023-12-20T00:45:05;3.40;99.90
27162;DHT22;54464;50.558;9.704;2023-12-20T00:47:33;3.50;99.90
27162;DHT22;54464;50.558;9.704;2023-12-20T00:49:59;3.40;99.90
27162;DHT22;54464;50.558;9.704;2023-12-20T00:52:24;3.50;99.90
27162;DHT22;54464;50.558;9.704;2023-12-20T00:54:50;3.50;99.90
27162;DHT22;54464;50.558;9.704;2023-12-20T00:57:16;3.50;99.90
27162;DHT22;54464;50.558;9.704;2023-12-20T00:59:42;3.50;99.90
27162;DHT22;54464;50.558;9.704;2023-12-20T01:02:07;3.50;99.90
27162;DHT22;54464;50.558;9.704;2023-12-20T01:04:34;3.50;99.90
27162;DHT22;54464;50.558;9.704;2023-12-20T01:06:59;3.50;99.90
27162;DHT22;54464;50.558;9.704;2023-12-20T01:09:25;3.50;99.90
27162;DHT22;54464;50.558;9.704;2023-12-20T01:11:52;3.60;99.90
27162;DHT22;54464;50.558;9.704;2023-12-20T01:14:18;3.60;99.90
27162;DHT22;54464;50.558;9.704;2023-12-20T01:16:44;3.60;99.90
27162;DHT22;54464;50.558;9.704;2023-12-20T01:19:10;3.60;99.90
27162;DHT22;54464;50.558;9.704;2023-12-20T01:21:35;3.60;99.90
27162;DHT22;54464;50.558;9.704;2023-12-20T01:24:01;3.60;99.90
27162;DHT22;54464;50.558;9.704;2023-12-20T01:26:26;3.60;99.90
27162;DHT22;54464;50.558;9.704;2023-12-20T01:28:53;3.60;99.90
27162;DHT22;54464;50.558;9.704;2023-12-20T01:31:18;3.60;99.90
27162;DHT22;54464;50.558;9.704;2023-12-20T01:33:44;3.60;99.90
27162;DHT22;54464;50.558;9.704;2023-12-20T01:36:09;3.60;99.90
27162;DHT22;54464;50.558;9.704;2023-12-20T01:38:35;3.60;99.90
27162;DHT22;54464;50.558;9.704;2023-12-20T01:41:01;3.70;99.90
27162;DHT22;54464;50.558;9.704;2023-12-20T01:43:26;3.70;99.90
27162;DHT22;54464;50.558;9.704;2023-12-20T01:45:52;3.70;99.90
27162;DHT22;54464;50.558;9.704;2023-12-20T01:48:20;3.70;99.90
27162;DHT22;54464;50.558;9.704;2023-12-20T01:50:45;3.70;99.90
27162;DHT22;54464;50.558;9.704;2023-12-20T01:53:12;3.70;99.90
27162;DHT22;54464;50.558;9.704;2023-12-20T01:55:39;3.70;99.90
27162;DHT22;54464;50.558;9.704;2023-12-20T01:58:09;3.70;99.90
27162;DHT22;54464;50.558;9.704;2023-12-20T02:00:36;3.70;99.90
27162;DHT22;54464;50.558;9.704;2023-12-20T02:03:03;3.80;99.90
27162;DHT22;54464;50.558;9.704;2023-12-20T02:05:33;3.70;99.90
27162;DHT22;54464;50.558;9.704;2023-12-20T02:08:00;3.70;99.90
27162;DHT22;54464;50.558;9.704;2023-12-20T02:10:26;3.70;99.90
27162;DHT22;54464;50.558;9.704;2023-12-20T02:12:52;3.70;99.90
27162;DHT22;54464;50.558;9.704;2023-12-20T02:15:18;3.80;99.90
27162;DHT22;54464;50.558;9.704;2023-12-20T02:17:45;3.80;99.90
27162;DHT22;54464;50.558;9.704;2023-12-20T02:20:11;3.80;99.90
27162;DHT22;54464;50.558;9.704;2023-12-20T02:22:37;3.80;99.90
27162;DHT22;54464;50.558;9.704;2023-12-20T02:25:03;3.80;99.90
27162;DHT22;54464;50.558;9.704;2023-12-20T02:27:29;3.80;99.90
27162;DHT22;54464;50.558;9.704;2023-12-20T02:29:55;3.80;99.90
27162;DHT22;54464;50.558;9.704;2023-12-20T02:32:21;3.70;99.90
27162;DHT22;54464;50.558;9.704;2023-12-20T02:34:48;3.80;99.90
27162;DHT22;54464;50.558;9.704;2023-12-20T02:37:14;3.80;99.90
27162;DHT22;54464;50.558;9.704;2023-12-20T02:39:40;3.70;99.90
27162;DHT22;54464;50.558;9.704;2023-12-20T02:42:05;3.80;99.90
27162;DHT22;54464;50.558;9.704;2023-12-20T02:44:31;3.80;99.90
27162;DHT22;54464;50.558;9.704;2023-12-20T02:46:56;3.80;99.90
27162;DHT22;54464;50.558;9.704;2023-12-20T02:49:22;3.80;99.90
27162;DHT22;54464;50.558;9.704;2023-12-20T02:51:47;3.80;99.90
27162;DHT22;54464;50.558;9.704;2023-12-20T02:54:13;3.80;99.90
27162;DHT22;54464;50.558;9.704;2023-12-20T02:56:39;3.80;99.90
27162;DHT22;54464;50.558;9.704;2023-12-20T02:59:04;3.80;99.90
27162;DHT22;54464;50.558;9.704;2023-12-20T03:01:31;3.80;99.90
27162;DHT22;54464;50.558;9.704;2023-12-20T03:03:57;3.80;99.90
27162;DHT22;54464;50.558;9.704;2023-12-20T03:06:23;3.80;99.90
27162;DHT22;54464;50.558;9.704;2023-12-20T03:08:49;3.90;99.90
27162;DHT22;54464;50.558;9.704;2023-12-20T03:11:14;3.90;99.90
27162;DHT22;54464;50.558;9.704;2023-12-20T03:13:40;3.80;99.90
27162;DHT22;54464;50.558;9.704;2023-12-20T03:16:13;3.90;99.90
27162;DHT22;54464;50.558;9.704;2023-12-20T03:18:39;3.90;99.90
27162;DHT22;54464;50.558;9.704;2023-12-20T03:21:05;3.90;99.90
27162;DHT22;54464;50.558;9.704;2023-12-20T03:23:31;3.90;99.90
27162;DHT22;54464;50.558;9.704;2023-12-20T03:25:58;3.90;99.90
27162;DHT22;54464;50.558;9.704;2023-12-20T03:28:24;4.00;99.90
27162;DHT22;54464;50.558;9.704;2023-12-20T03:30:50;4.00;99.90
27162;DHT22;54464;50.558;9.704;2023-12-20T03:33:15;3.90;99.90
27162;DHT22;54464;50.558;9.704;2023-12-20T03:35:41;4.00;99.90
27162;DHT22;54464;50.558;9.704;2023-12-20T03:38:07;4.00;99.90
27162;DHT22;54464;50.558;9.704;2023-12-20T03:40:33;4.00;99.90
27162;DHT22;54464;50.558;9.704;2023-12-20T03:42:58;4.00;99.90
27162;DHT22;54464;50.558;9.704;2023-12-20T03:45:24;4.00;99.90
27162;DHT22;54464;50.558;9.704;2023-12-20T03:47:50;3.90;99.90
27162;DHT22;54464;50.558;9.704;2023-12-20T03:50:21;3.90;99.90
27162;DHT22;54464;50.558;9.704;2023-12-20T03:52:47;3.90;99.90
27162;DHT22;54464;50.558;9.704;2023-12-20T03:55:12;3.90;99.90
27162;DHT22;54464;50.558;9.704;2023-12-20T03:57:38;3.90;99.90
27162;DHT22;54464;50.558;9.704;2023-12-20T04:00:04;3.90;99.90
27162;DHT22;54464;50.558;9.704;2023-12-20T04:02:30;3.90;99.90
27162;DHT22;54464;50.558;9.704;2023-12-20T04:04:56;3.90;99.90
27162;DHT22;54464;50.558;9.704;2023-12-20T04:07:21;3.90;99.90
27162;DHT22;54464;50.558;9.704;2023-12-20T04:09:47;3.90;99.90
27162;DHT22;54464;50.558;9.704;2023-12-20T04:12:13;3.90;99.90
27162;DHT22;54464;50.558;9.704;2023-12-20T04:14:39;3.90;99.90
27162;DHT22;54464;50.558;9.704;2023-12-20T04:17:04;3.90;99.90
27162;DHT22;54464;50.558;9.704;2023-12-20T04:19:30;3.90;99.90
27162;DHT22;54464;50.558;9.704;2023-12-20T04:21:55;4.00;99.90
27162;DHT22;54464;50.558;9.704;2023-12-20T04:24:21;4.00;99.90
27162;DHT22;54464;50.558;9.704;2023-12-20T04:26:47;4.00;99.90
27162;DHT22;54464;50.558;9.704;2023-12-20T04:29:13;4.00;99.90
27162;DHT22;54464;50.558;9.704;2023-12-20T04:31:38;3.90;99.90
27162;DHT22;54464;50.558;9.704;2023-12-20T04:34:04;4.00;99.90
27162;DHT22;54464;50.558;9.704;2023-12-20T04:36:29;3.90;99.90
27162;DHT22;54464;50.558;9.704;2023-12-20T04:38:55;3.90;99.90
27162;DHT22;54464;50.558;9.704;2023-12-20T04:41:20;3.90;99.90
27162;DHT22;54464;50.558;9.704;2023-12-20T04:43:46;3.90;99.90
27162;DHT22;54464;50.558;9.704;2023-12-20T04:46:12;3.80;99.90
27162;DHT22;54464;50.558;9.704;2023-12-20T04:48:37;3.80;99.90
27162;DHT22;54464;50.558;9.704;2023-12-20T04:51:03;3.90;99.90
27162;DHT22;54464;50.558;9.704;2023-12-20T04:53:28;3.80;99.90
27162;DHT22;54464;50.558;9.704;2023-12-20T04:55:54;3.80;99.90
27162;DHT22;54464;50.558;9.704;2023-12-20T04:58:19;3.90;99.90
27162;DHT22;54464;50.558;9.704;2023-12-20T05:00:45;3.90;99.90
27162;DHT22;54464;50.558;9.704;2023-12-20T05:03:11;3.90;99.90
27162;DHT22;54464;50.558;9.704;2023-12-20T05:05:36;3.90;99.90
27162;DHT22;54464;50.558;9.704;2023-12-20T05:08:02;3.90;99.90
27162;DHT22;54464;50.558;9.704;2023-12-20T05:10:28;3.80;99.90
27162;DHT22;54464;50.558;9.704;2023-12-20T05:12:53;3.80;99.90
27162;DHT22;54464;50.558;9.704;2023-12-20T05:15:19;3.80;99.90
27162;DHT22;54464;50.558;9.704;2023-12-20T05:17:44;3.80;99.90
27162;DHT22;54464;50.558;9.704;2023-12-20T05:20:10;3.80;99.90
27162;DHT22;54464;50.558;9.704;2023-12-20T05:22:35;3.90;99.90
27162;DHT22;54464;50.558;9.704;2023-12-20T05:25:01;3.80;99.90
27162;DHT22;54464;50.558;9.704;2023-12-20T05:27:27;3.80;99.90
27162;DHT22;54464;50.558;9.704;2023-12-20T05:29:52;3.80;99.90
27162;DHT22;54464;50.558;9.704;2023-12-20T05:32:18;3.80;99.90
27162;DHT22;54464;50.558;9.704;2023-12-20T05:34:44;3.80;99.90
27162;DHT22;54464;50.558;9.704;2023-12-20T05:37:09;3.70;99.90
27162;DHT22;54464;50.558;9.704;2023-12-20T05:39:35;3.70;99.90
27162;DHT22;54464;50.558;9.704;2023-12-20T05:42:00;3.70;99.90
27162;DHT22;54464;50.558;9.704;2023-12-20T05:44:26;3.60;99.90
27162;DHT22;54464;50.558;9.704;2023-12-20T05:46:51;3.60;99.90
27162;DHT22;54464;50.558;9.704;2023-12-20T05:49:17;3.60;99.90
27162;DHT22;54464;50.558;9.704;2023-12-20T05:51:43;3.60;99.90
27162;DHT22;54464;50.558;9.704;2023-12-20T05:54:09;3.70;99.90
27162;DHT22;54464;50.558;9.704;2023-12-20T05:56:34;3.70;99.90
27162;DHT22;54464;50.558;9.704;2023-12-20T05:59:00;3.70;99.90
27162;DHT22;54464;50.558;9.704;2023-12-20T06:01:26;3.70;99.90
27162;DHT22;54464;50.558;9.704;2023-12-20T06:03:51;3.80;99.90
27162;DHT22;54464;50.558;9.704;2023-12-20T06:06:17;3.80;99.90
27162;DHT22;54464;50.558;9.704;2023-12-20T06:08:43;3.90;99.90
27162;DHT22;54464;50.558;9.704;2023-12-20T06:11:09;3.80;99.90
27162;DHT22;54464;50.558;9.704;2023-12-20T06:13:34;3.90;99.90
27162;DHT22;54464;50.558;9.704;2023-12-20T06:16:01;3.90;99.90
27162;DHT22;54464;50.558;9.704;2023-12-20T06:18:26;3.90;99.90
27162;DHT22;54464;50.558;9.704;2023-12-20T06:20:52;3.70;99.90
27162;DHT22;54464;50.558;9.704;2023-12-20T06:23:18;3.60;99.90
27162;DHT22;54464;50.558;9.704;2023-12-20T06:25:44;3.60;99.90
27162;DHT22;54464;50.558;9.704;2023-12-20T06:28:09;3.60;99.90
27162;DHT22;54464;50.558;9.704;2023-12-20T06:30:36;3.50;99.90
27162;DHT22;54464;50.558;9.704;2023-12-20T06:33:01;3.40;99.90
27162;DHT22;54464;50.558;9.704;2023-12-20T06:35:27;3.40;99.90
27162;DHT22;54464;50.558;9.704;2023-12-20T06:37:53;3.40;99.90
27162;DHT22;54464;50.558;9.704;2023-12-20T06:40:19;3.50;99.90
27162;DHT22;54464;50.558;9.704;2023-12-20T06:42:45;3.50;99.90
27162;DHT22;54464;50.558;9.704;2023-12-20T06:45:11;3.40;99.90
27162;DHT22;54464;50.558;9.704;2023-12-20T06:47:37;3.40;99.90
27162;DHT22;54464;50.558;9.704;2023-12-20T06:50:04;3.40;99.90
27162;DHT22;54464;50.558;9.704;2023-12-20T06:52:30;3.50;99.90
27162;DHT22;54464;50.558;9.704;2023-12-20T06:54:55;3.50;99.90
27162;DHT22;54464;50.558;9.704;2023-12-20T06:57:21;3.50;99.90
27162;DHT22;54464;50.558;9.704;2023-12-20T06:59:46;3.50;99.90
27162;DHT22;54464;50.558;9.704;2023-12-20T07:02:12;3.50;99.90
27162;DHT22;54464;50.558;9.704;2023-12-20T07:04:41;3.50;99.90
27162;DHT22;54464;50.558;9.704;2023-12-20T07:07:07;3.50;99.90
27162;DHT22;54464;50.558;9.704;2023-12-20T07:09:33;3.50;99.90
27162;DHT22;54464;50.558;9.704;2023-12-20T07:11:58;3.50;99.90
27162;DHT22;54464;50.558;9.704;2023-12-20T07:14:24;3.50;99.90
27162;DHT22;54464;50.558;9.704;2023-12-20T07:16:51;3.40;99.90
27162;DHT22;54464;50.558;9.704;2023-12-20T07:19:17;3.40;99.90
27162;DHT22;54464;50.558;9.704;2023-12-20T07:21:42;3.40;99.90
27162;DHT22;54464;50.558;9.704;2023-12-20T07:24:08;3.40;99.90
27162;DHT22;54464;50.558;9.704;2023-12-20T07:26:35;3.30;99.90
27162;DHT22;54464;50.558;9.704;2023-12-20T07:29:00;3.30;99.90
27162;DHT22;54464;50.558;9.704;2023-12-20T07:31:26;3.40;99.90
27162;DHT22;54464;50.558;9.704;2023-12-20T07:33:51;3.40;99.90
27162;DHT22;54464;50.558;9.704;2023-12-20T07:36:17;3.50;99.90
27162;DHT22;54464;50.558;9.704;2023-12-20T07:38:43;3.50;99.90
27162;DHT22;54464;50.558;9.704;2023-12-20T07:41:12;3.50;99.90
27162;DHT22;54464;50.558;9.704;2023-12-20T07:43:38;3.50;99.90
27162;DHT22;54464;50.558;9.704;2023-12-20T07:46:08;3.50;99.90
27162;DHT22;54464;50.558;9.704;2023-12-20T07:48:35;3.60;99.90
27162;DHT22;54464;50.558;9.704;2023-12-20T07:51:01;3.50;99.90
27162;DHT22;54464;50.558;9.704;2023-12-20T07:53:27;3.50;99.90
27162;DHT22;54464;50.558;9.704;2023-12-20T07:55:52;3.50;99.90
27162;DHT22;54464;50.558;9.704;2023-12-20T07:58:18;3.60;99.90
27162;DHT22;54464;50.558;9.704;2023-12-20T08:00:44;3.60;99.90
27162;DHT22;54464;50.558;9.704;2023-12-20T08:03:10;3.60;99.90
27162;DHT22;54464;50.558;9.704;2023-12-20T08:05:35;3.60;99.90
27162;DHT22;54464;50.558;9.704;2023-12-20T08:08:01;3.70;99.90
27162;DHT22;54464;50.558;9.704;2023-12-20T08:10:27;3.70;99.90
27162;DHT22;54464;50.558;9.704;2023-12-20T08:12:55;3.70;99.90
27162;DHT22;54464;50.558;9.704;2023-12-20T08:15:20;3.70;99.90
27162;DHT22;54464;50.558;9.704;2023-12-20T08:17:46;3.70;99.90
27162;DHT22;54464;50.558;9.704;2023-12-20T08:20:11;3.70;99.90
27162;DHT22;54464;50.558;9.704;2023-12-20T08:22:37;3.70;99.90
27162;DHT22;54464;50.558;9.704;2023-12-20T08:25:03;3.80;99.90
27162;DHT22;54464;50.558;9.704;2023-12-20T08:27:28;3.70;99.90
27162;DHT22;54464;50.558;9.704;2023-12-20T08:29:54;3.70;99.90
27162;DHT22;54464;50.558;9.704;2023-12-20T08:32:20;3.70;99.90
27162;DHT22;54464;50.558;9.704;2023-12-20T08:34:45;3.70;99.90
27162;DHT22;54464;50.558;9.704;2023-12-20T08:37:11;3.70;99.90
27162;DHT22;54464;50.558;9.704;2023-12-20T08:39:36;3.70;99.90
27162;DHT22;54464;50.558;9.704;2023-12-20T08:42:02;3.70;99.90
27162;DHT22;54464;50.558;9.704;2023-12-20T08:44:27;3.80;99.90
27162;DHT22;54464;50.558;9.704;2023-12-20T08:46:53;3.80;99.90
27162;DHT22;54464;50.558;9.704;2023-12-20T08:49:22;3.80;99.90
27162;DHT22;54464;50.558;9.704;2023-12-20T08:51:48;3.80;99.90
27162;DHT22;54464;50.558;9.704;2023-12-20T08:54:13;3.80;99.90
27162;DHT22;54464;50.558;9.704;2023-12-20T08:56:39;3.90;99.90
27162;DHT22;54464;50.558;9.704;2023-12-20T08:59:05;3.90;99.90
27162;DHT22;54464;50.558;9.704;2023-12-20T09:01:30;3.90;99.90
27162;DHT22;54464;50.558;9.704;2023-12-20T09:03:56;3.90;99.90
27162;DHT22;54464;50.558;9.704;2023-12-20T09:06:21;3.90;99.90
27162;DHT22;54464;50.558;9.704;2023-12-20T09:08:47;3.80;99.90
27162;DHT22;54464;50.558;9.704;2023-12-20T09:11:12;3.90;99.90
27162;DHT22;54464;50.558;9.704;2023-12-20T09:13:39;3.90;99.90
27162;DHT22;54464;50.558;9.704;2023-12-20T09:16:05;3.80;99.90
27162;DHT22;54464;50.558;9.704;2023-12-20T09:18:31;3.90;99.90
27162;DHT22;54464;50.558;9.704;2023-12-20T09:20:57;4.10;99.90
27162;DHT22;54464;50.558;9.704;2023-12-20T09:23:22;4.20;99.90
27162;DHT22;54464;50.558;9.704;2023-12-20T09:25:48;4.20;99.90
27162;DHT22;54464;50.558;9.704;2023-12-20T09:28:13;4.20;99.90
27162;DHT22;54464;50.558;9.704;2023-12-20T09:30:39;4.10;99.90
27162;DHT22;54464;50.558;9.704;2023-12-20T09:33:05;4.20;99.90
27162;DHT22;54464;50.558;9.704;2023-12-20T09:35:32;4.20;99.90
27162;DHT22;54464;50.558;9.704;2023-12-20T09:37:58;4.30;99.90
27162;DHT22;54464;50.558;9.704;2023-12-20T09:40:26;4.40;99.90
27162;DHT22;54464;50.558;9.704;2023-12-20T09:43:01;4.40;99.90
27162;DHT22;54464;50.558;9.704;2023-12-20T09:45:30;4.40;99.90
27162;DHT22;54464;50.558;9.704;2023-12-20T09:47:58;4.30;99.90
27162;DHT22;54464;50.558;9.704;2023-12-20T09:50:24;4.30;99.90
27162;DHT22;54464;50.558;9.704;2023-12-20T09:52:53;4.30;99.90
27162;DHT22;54464;50.558;9.704;2023-12-20T09:55:20;4.30;99.90
27162;DHT22;54464;50.558;9.704;2023-12-20T09:57:49;4.20;99.90
27162;DHT22;54464;50.558;9.704;2023-12-20T10:00:15;4.20;99.90
27162;DHT22;54464;50.558;9.704;2023-12-20T10:02:47;4.10;99.90
27162;DHT22;54464;50.558;9.704;2023-12-20T10:05:16;4.20;99.90
27162;DHT22;54464;50.558;9.704;2023-12-20T10:07:44;4.20;99.90
27162;DHT22;54464;50.558;9.704;2023-12-20T10:10:10;4.30;99.90
27162;DHT22;54464;50.558;9.704;2023-12-20T10:12:37;4.30;99.90
27162;DHT22;54464;50.558;9.704;2023-12-20T10:15:04;4.30;99.90
27162;DHT22;54464;50.558;9.704;2023-12-20T10:17:30;4.30;99.90
27162;DHT22;54464;50.558;9.704;2023-12-20T10:19:55;4.30;99.90
27162;DHT22;54464;50.558;9.704;2023-12-20T10:22:21;4.30;99.90
27162;DHT22;54464;50.558;9.704;2023-12-20T10:24:47;4.30;99.90
27162;DHT22;54464;50.558;9.704;2023-12-20T10:27:13;4.30;99.90
27162;DHT22;54464;50.558;9.704;2023-12-20T10:29:38;4.40;99.90
27162;DHT22;54464;50.558;9.704;2023-12-20T10:32:25;4.40;99.90
27162;DHT22;54464;50.558;9.704;2023-12-20T10:34:51;4.50;99.90
27162;DHT22;54464;50.558;9.704;2023-12-20T10:37:18;4.50;99.90
27162;DHT22;54464;50.558;9.704;2023-12-20T10:39:43;4.50;99.90
27162;DHT22;54464;50.558;9.704;2023-12-20T10:42:12;4.50;99.90
27162;DHT22;54464;50.558;9.704;2023-12-20T10:44:38;4.50;99.90
27162;DHT22;54464;50.558;9.704;2023-12-20T10:47:05;4.50;99.90
27162;DHT22;54464;50.558;9.704;2023-12-20T10:49:31;4.50;99.90
27162;DHT22;54464;50.558;9.704;2023-12-20T10:52:02;4.60;99.90
27162;DHT22;54464;50.558;9.704;2023-12-20T10:54:29;4.60;99.90
27162;DHT22;54464;50.558;9.704;2023-12-20T10:56:57;4.60;99.90
27162;DHT22;54464;50.558;9.704;2023-12-20T10:59:24;4.60;99.90
27162;DHT22;54464;50.558;9.704;2023-12-20T11:01:50;4.70;99.90
27162;DHT22;54464;50.558;9.704;2023-12-20T11:04:23;4.70;99.90
27162;DHT22;54464;50.558;9.704;2023-12-20T11:07:19;4.70;99.90
27162;DHT22;54464;50.558;9.704;2023-12-20T11:10:51;4.80;99.90
27162;DHT22;54464;50.558;9.704;2023-12-20T11:12:52;4.70;99.90
27162;DHT22;54464;50.558;9.704;2023-12-20T11:15:19;4.70;99.90
27162;DHT22;54464;50.558;9.704;2023-12-20T11:17:45;4.70;99.90
27162;DHT22;54464;50.558;9.704;2023-12-20T11:20:14;4.70;99.90
27162;DHT22;54464;50.558;9.704;2023-12-20T11:22:40;4.70;99.90
27162;DHT22;54464;50.558;9.704;2023-12-20T11:25:17;4.80;99.90
27162;DHT22;54464;50.558;9.704;2023-12-20T11:27:43;4.80;99.90
27162;DHT22;54464;50.558;9.704;2023-12-20T11:30:09;4.80;99.90
27162;DHT22;54464;50.558;9.704;2023-12-20T11:32:36;5.00;99.90
27162;DHT22;54464;50.558;9.704;2023-12-20T11:35:17;5.00;99.90
27162;DHT22;54464;50.558;9.704;2023-12-20T11:37:45;4.90;99.90
27162;DHT22;54464;50.558;9.704;2023-12-20T11:40:16;5.00;99.90
27162;DHT22;54464;50.558;9.704;2023-12-20T11:42:44;4.90;99.90
27162;DHT22;54464;50.558;9.704;2023-12-20T11:45:13;4.90;99.90
27162;DHT22;54464;50.558;9.704;2023-12-20T11:47:43;4.90;99.90
27162;DHT22;54464;50.558;9.704;2023-12-20T11:50:09;5.00;99.90
27162;DHT22;54464;50.558;9.704;2023-12-20T11:52:35;5.00;99.90
27162;DHT22;54464;50.558;9.704;2023-12-20T11:55:00;5.00;99.90
27162;DHT22;54464;50.558;9.704;2023-12-20T11:57:26;5.00;99.90
27162;DHT22;54464;50.558;9.704;2023-12-20T11:59:51;5.10;99.90
27162;DHT22;54464;50.558;9.704;2023-12-20T12:02:17;5.00;99.90
27162;DHT22;54464;50.558;9.704;2023-12-20T12:04:43;5.00;99.90
27162;DHT22;54464;50.558;9.704;2023-12-20T12:07:08;5.00;99.90
27162;DHT22;54464;50.558;9.704;2023-12-20T12:09:34;5.20;99.90
27162;DHT22;54464;50.558;9.704;2023-12-20T12:12:00;5.20;99.90
27162;DHT22;54464;50.558;9.704;2023-12-20T12:14:26;5.20;99.90
27162;DHT22;54464;50.558;9.704;2023-12-20T12:16:52;5.00;99.90
27162;DHT22;54464;50.558;9.704;2023-12-20T12:19:25;5.00;99.90
27162;DHT22;54464;50.558;9.704;2023-12-20T12:22:13;5.00;99.90
27162;DHT22;54464;50.558;9.704;2023-12-20T12:24:48;4.90;99.90
27162;DHT22;54464;50.558;9.704;2023-12-20T12:27:15;5.00;99.90
27162;DHT22;54464;50.558;9.704;2023-12-20T12:29:42;5.00;99.90
27162;DHT22;54464;50.558;9.704;2023-12-20T12:32:25;5.00;99.90
27162;DHT22;54464;50.558;9.704;2023-12-20T12:34:51;5.00;99.90
27162;DHT22;54464;50.558;9.704;2023-12-20T12:37:16;5.10;99.90
27162;DHT22;54464;50.558;9.704;2023-12-20T12:39:42;5.00;99.90
27162;DHT22;54464;50.558;9.704;2023-12-20T12:42:07;5.20;99.90
27162;DHT22;54464;50.558;9.704;2023-12-20T12:44:33;5.20;99.90
27162;DHT22;54464;50.558;9.704;2023-12-20T12:46:59;5.20;99.90
27162;DHT22;54464;50.558;9.704;2023-12-20T12:49:24;5.20;99.90
27162;DHT22;54464;50.558;9.704;2023-12-20T12:51:51;5.20;99.90
27162;DHT22;54464;50.558;9.704;2023-12-20T12:54:16;5.20;99.90
27162;DHT22;54464;50.558;9.704;2023-12-20T12:56:43;5.20;99.90
27162;DHT22;54464;50.558;9.704;2023-12-20T12:59:09;5.30;99.90
27162;DHT22;54464;50.558;9.704;2023-12-20T13:01:35;5.40;99.90
27162;DHT22;54464;50.558;9.704;2023-12-20T13:04:01;5.50;99.90
27162;DHT22;54464;50.558;9.704;2023-12-20T13:06:29;5.60;99.90
27162;DHT22;54464;50.558;9.704;2023-12-20T13:08:54;5.70;99.90
27162;DHT22;54464;50.558;9.704;2023-12-20T13:11:20;5.90;99.90
27162;DHT22;54464;50.558;9.704;2023-12-20T13:13:46;5.70;99.90
27162;DHT22;54464;50.558;9.704;2023-12-20T13:16:12;5.80;99.90
27162;DHT22;54464;50.558;9.704;2023-12-20T13:18:38;5.70;99.90
27162;DHT22;54464;50.558;9.704;2023-12-20T13:21:07;5.60;99.90
27162;DHT22;54464;50.558;9.704;2023-12-20T13:23:33;5.50;99.90
27162;DHT22;54464;50.558;9.704;2023-12-20T13:25:58;5.50;99.90
27162;DHT22;54464;50.558;9.704;2023-12-20T13:28:24;5.30;99.90
27162;DHT22;54464;50.558;9.704;2023-12-20T13:30:50;5.30;99.90
27162;DHT22;54464;50.558;9.704;2023-12-20T13:33:15;5.20;99.90
27162;DHT22;54464;50.558;9.704;2023-12-20T13:35:41;5.20;99.90
27162;DHT22;54464;50.558;9.704;2023-12-20T13:38:06;5.20;99.90
27162;DHT22;54464;50.558;9.704;2023-12-20T13:40:33;5.20;99.90
27162;DHT22;54464;50.558;9.704;2023-12-20T13:42:58;5.20;99.90
27162;DHT22;54464;50.558;9.704;2023-12-20T13:45:24;5.20;99.90
27162;DHT22;54464;50.558;9.704;2023-12-20T13:47:50;5.20;99.90
27162;DHT22;54464;50.558;9.704;2023-12-20T13:50:16;5.20;99.90
27162;DHT22;54464;50.558;9.704;2023-12-20T13:52:41;5.10;99.90
27162;DHT22;54464;50.558;9.704;2023-12-20T13:55:07;5.10;99.90
27162;DHT22;54464;50.558;9.704;2023-12-20T13:57:33;5.10;99.90
27162;DHT22;54464;50.558;9.704;2023-12-20T13:59:59;5.10;99.90
27162;DHT22;54464;50.558;9.704;2023-12-20T14:02:25;5.10;99.90
27162;DHT22;54464;50.558;9.704;2023-12-20T14:04:52;5.10;99.90
27162;DHT22;54464;50.558;9.704;2023-12-20T14:07:18;5.10;99.90
27162;DHT22;54464;50.558;9.704;2023-12-20T14:09:43;5.10;99.90
27162;DHT22;54464;50.558;9.704;2023-12-20T14:12:11;5.10;99.90
27162;DHT22;54464;50.558;9.704;2023-12-20T14:14:36;5.10;99.90
27162;DHT22;54464;50.558;9.704;2023-12-20T14:17:02;5.10;99.90
27162;DHT22;54464;50.558;9.704;2023-12-20T14:19:29;5.10;99.90
27162;DHT22;54464;50.558;9.704;2023-12-20T14:21:54;5.10;99.90
27162;DHT22;54464;50.558;9.704;2023-12-20T14:24:20;5.00;99.90
27162;DHT22;54464;50.558;9.704;2023-12-20T14:26:45;5.10;99.90
27162;DHT22;54464;50.558;9.704;2023-12-20T14:29:11;5.10;99.90
27162;DHT22;54464;50.558;9.704;2023-12-20T14:31:37;5.10;99.90
27162;DHT22;54464;50.558;9.704;2023-12-20T14:34:04;5.00;99.90
27162;DHT22;54464;50.558;9.704;2023-12-20T14:36:30;5.00;99.90
27162;DHT22;54464;50.558;9.704;2023-12-20T14:38:56;5.00;99.90
27162;DHT22;54464;50.558;9.704;2023-12-20T14:41:22;5.00;99.90
27162;DHT22;54464;50.558;9.704;2023-12-20T14:43:50;5.00;99.90
27162;DHT22;54464;50.558;9.704;2023-12-20T14:46:17;5.00;99.90
27162;DHT22;54464;50.558;9.704;2023-12-20T14:48:42;5.00;99.90
27162;DHT22;54464;50.558;9.704;2023-12-20T14:51:08;5.00;99.90
27162;DHT22;54464;50.558;9.704;2023-12-20T14:53:34;5.00;99.90
27162;DHT22;54464;50.558;9.704;2023-12-20T14:56:03;5.00;99.90
27162;DHT22;54464;50.558;9.704;2023-12-20T14:58:29;5.00;99.90
27162;DHT22;54464;50.558;9.704;2023-12-20T15:00:55;4.90;99.90
27162;DHT22;54464;50.558;9.704;2023-12-20T15:03:21;4.90;99.90
27162;DHT22;54464;50.558;9.704;2023-12-20T15:05:47;4.90;99.90
27162;DHT22;54464;50.558;9.704;2023-12-20T15:08:16;5.00;99.90
27162;DHT22;54464;50.558;9.704;2023-12-20T15:10:41;5.00;99.90
27162;DHT22;54464;50.558;9.704;2023-12-20T15:13:07;5.00;99.90
27162;DHT22;54464;50.558;9.704;2023-12-20T15:15:32;5.10;99.90
27162;DHT22;54464;50.558;9.704;2023-12-20T15:17:59;5.10;99.90
27162;DHT22;54464;50.558;9.704;2023-12-20T15:20:25;5.10;99.90
27162;DHT22;54464;50.558;9.704;2023-12-20T15:22:51;5.00;99.90
27162;DHT22;54464;50.558;9.704;2023-12-20T15:25:16;5.10;99.90
27162;DHT22;54464;50.558;9.704;2023-12-20T15:27:50;5.10;99.90
27162;DHT22;54464;50.558;9.704;2023-12-20T15:30:22;5.10;99.90
27162;DHT22;54464;50.558;9.704;2023-12-20T15:32:50;5.10;99.90
27162;DHT22;54464;50.558;9.704;2023-12-20T15:35:16;5.10;99.90
27162;DHT22;54464;50.558;9.704;2023-12-20T15:37:42;5.10;99.90
27162;DHT22;54464;50.558;9.704;2023-12-20T15:40:08;5.10;99.90